createdAt,value
2023-01-11T00:02:18.586Z,25.80
2023-01-11T00:04:47.736Z,25.30
2023-01-11T00:07:14.924Z,24.80
2023-01-11T00:09:41.723Z,25.80
2023-01-11T00:12:08.418Z,26.20
2023-01-11T00:14:35.163Z,27.10
2023-01-11T00:17:02.020Z,29.80
2023-01-11T00:19:28.812Z,29.50
2023-01-11T00:24:22.607Z,28.60
2023-01-11T00:26:49.338Z,29.20
2023-01-11T00:29:16.210Z,30.30
2023-01-11T00:31:43.005Z,31.60
2023-01-11T00:34:09.717Z,31.70
2023-01-11T00:36:36.481Z,29.60
2023-01-11T00:39:03.280Z,29.00
2023-01-11T00:41:48.910Z,30.00
2023-01-11T00:44:34.370Z,28.90
2023-01-11T00:47:19.861Z,30.20
2023-01-11T00:49:46.655Z,29.20
2023-01-11T00:52:13.405Z,27.20
2023-01-11T00:54:40.994Z,30.50
2023-01-11T00:57:08.286Z,31.70
2023-01-11T00:59:36.101Z,30.30
2023-01-11T01:02:03.808Z,32.50
2023-01-11T01:04:30.734Z,29.90
2023-01-11T01:06:57.596Z,29.90
2023-01-11T01:09:24.652Z,30.90
2023-01-11T01:17:01.670Z,31.20
2023-01-11T01:19:29.895Z,29.00
2023-01-11T01:21:57.723Z,25.40
2023-01-11T01:24:24.725Z,27.20
2023-01-11T01:34:12.253Z,24.00
2023-01-11T01:36:39.221Z,28.60
2023-01-11T01:39:06.538Z,30.10
2023-01-11T01:41:34.445Z,30.10
2023-01-11T01:44:03.203Z,28.70
2023-01-11T01:46:31.501Z,27.40
2023-01-11T01:49:09.670Z,35.70
2023-01-11T01:51:41.769Z,33.20
2023-01-11T01:54:12.054Z,29.80
2023-01-11T01:56:59.727Z,31.50
2023-01-11T01:59:27.040Z,29.60
2023-01-11T02:01:53.893Z,23.70
2023-01-11T02:04:25.353Z,21.20
2023-01-11T02:06:55.189Z,21.10
2023-01-11T02:09:37.465Z,22.50
2023-01-11T02:12:04.542Z,21.50
2023-01-11T02:16:58.446Z,22.70
2023-01-11T02:19:53.285Z,23.60
2023-01-11T02:22:51.343Z,24.00
2023-01-11T02:25:44.211Z,23.40
2023-01-11T02:28:13.431Z,21.30
2023-01-11T02:31:02.218Z,19.60
2023-01-11T02:33:32.651Z,19.50
2023-01-11T02:36:21.007Z,17.90
2023-01-11T02:38:55.307Z,20.90
2023-01-11T02:41:59.813Z,19.40
2023-01-11T02:45:16.221Z,17.80
2023-01-11T02:48:08.406Z,18.20
2023-01-11T02:50:39.423Z,18.50
2023-01-11T02:53:10.635Z,18.90
2023-01-11T02:55:39.266Z,18.50
2023-01-11T02:58:08.207Z,18.80
2023-01-11T03:00:38.040Z,20.70
2023-01-11T03:03:09.302Z,18.70
2023-01-11T03:05:40.603Z,18.50
2023-01-11T03:08:44.752Z,17.70
2023-01-11T03:11:38.696Z,16.80
2023-01-11T03:14:20.662Z,20.10
2023-01-11T03:16:53.580Z,20.10
2023-01-11T03:19:47.182Z,17.90
2023-01-11T03:22:16.967Z,17.60
2023-01-11T03:24:45.794Z,18.50
2023-01-11T03:27:35.633Z,18.30
2023-01-11T03:30:31.604Z,17.50
2023-01-11T03:33:03.761Z,18.90
2023-01-11T03:35:38.035Z,26.30
2023-01-11T03:38:27.034Z,41.70
2023-01-11T03:40:57.435Z,36.30
2023-01-11T03:43:24.625Z,32.00
2023-01-11T03:46:08.870Z,31.10
2023-01-11T03:48:40.199Z,23.80
2023-01-11T03:51:08.949Z,19.00
2023-01-11T03:53:36.169Z,18.10
2023-01-11T03:56:03.291Z,17.20
2023-01-11T04:03:26.868Z,16.70
2023-01-11T04:05:55.180Z,14.40
2023-01-11T04:08:21.969Z,15.20
2023-01-11T04:10:49.182Z,15.70
2023-01-11T04:13:16.066Z,14.60
2023-01-11T04:15:42.883Z,16.50
2023-01-11T04:18:09.603Z,16.40
2023-01-11T04:20:38.449Z,15.20
2023-01-11T04:23:05.421Z,18.50
2023-01-11T04:25:32.218Z,19.70
2023-01-11T04:27:59.021Z,19.00
2023-01-11T04:30:26.233Z,22.10
2023-01-11T04:32:53.028Z,24.00
2023-01-11T04:35:19.829Z,24.80
2023-01-11T04:37:46.621Z,18.40
2023-01-11T04:40:13.637Z,17.40
2023-01-11T04:42:40.541Z,16.20
2023-01-11T04:45:08.229Z,18.50
2023-01-11T04:47:35.039Z,33.90
2023-01-11T04:50:01.937Z,33.50
2023-01-11T04:52:28.755Z,25.50
2023-01-11T04:54:55.564Z,21.60
2023-01-11T04:57:22.428Z,20.00
2023-01-11T04:59:49.234Z,18.80
2023-01-11T05:02:16.235Z,16.10
2023-01-11T05:04:43.646Z,15.50
2023-01-11T05:07:10.647Z,17.60
2023-01-11T05:14:31.037Z,13.60
2023-01-11T05:16:59.015Z,17.20
2023-01-11T05:19:26.052Z,27.40
2023-01-11T05:21:52.887Z,29.30
2023-01-11T05:24:19.794Z,24.80
2023-01-11T05:26:48.620Z,19.90
2023-01-11T05:29:20.647Z,21.80
2023-01-11T05:31:47.961Z,21.10
2023-01-11T05:34:15.378Z,24.10
2023-01-11T05:36:42.276Z,26.10
2023-01-11T05:41:36.197Z,26.10
2023-01-11T05:46:48.720Z,18.50
2023-01-11T05:49:15.513Z,18.40
2023-01-11T05:51:42.701Z,20.50
2023-01-11T05:54:11.975Z,19.90
2023-01-11T05:56:38.928Z,17.60
2023-01-11T05:59:05.887Z,18.50
2023-01-11T06:01:32.775Z,30.20
2023-01-11T06:03:59.668Z,19.70
2023-01-11T06:06:26.711Z,18.10
2023-01-11T06:08:53.823Z,17.20
2023-01-11T06:11:20.622Z,18.60
2023-01-11T06:13:47.979Z,20.00
2023-01-11T06:16:16.817Z,18.20
2023-01-11T06:18:45.732Z,18.90
2023-01-11T06:21:12.775Z,19.60
2023-01-11T06:26:09.369Z,24.90
2023-01-11T06:28:36.649Z,24.80
2023-01-11T06:31:03.836Z,18.60
2023-01-11T06:33:30.825Z,18.10
2023-01-11T06:35:57.929Z,16.50
2023-01-11T06:38:25.273Z,16.60
2023-01-11T06:41:00.614Z,18.20
2023-01-11T06:43:28.051Z,15.00
2023-01-11T06:45:55.072Z,16.90
2023-01-11T06:50:49.996Z,17.30
2023-01-11T06:53:16.937Z,20.10
2023-01-11T06:55:43.849Z,20.20
2023-01-11T06:58:10.628Z,16.70
2023-01-11T07:03:05.361Z,15.50
2023-01-11T07:05:33.140Z,16.10
2023-01-11T07:08:00.126Z,16.00
2023-01-11T07:12:53.963Z,19.30
2023-01-11T07:17:49.465Z,15.10
2023-01-11T07:20:17.121Z,13.50
2023-01-11T07:23:34.199Z,15.30
2023-01-11T07:26:01.390Z,15.40
2023-01-11T07:28:32.407Z,18.60
2023-01-11T07:31:00.999Z,17.50
2023-01-11T07:35:55.546Z,17.50
2023-01-11T07:38:22.726Z,18.70
2023-01-11T07:43:18.568Z,14.00
2023-01-11T07:45:50.383Z,17.60
2023-01-11T07:48:24.980Z,17.00
2023-01-11T07:50:52.840Z,22.00
2023-01-11T07:53:20.112Z,20.60
2023-01-11T07:55:47.747Z,21.20
2023-01-11T07:58:15.287Z,20.80
2023-01-11T08:00:48.377Z,22.50
2023-01-11T08:03:15.440Z,21.80
2023-01-11T08:05:52.724Z,18.20
2023-01-11T08:08:19.901Z,17.20
2023-01-11T08:10:46.908Z,16.90
2023-01-11T08:13:34.483Z,18.50
2023-01-11T08:16:13.377Z,21.80
2023-01-11T08:18:40.312Z,18.20
2023-01-11T08:21:07.205Z,18.60
2023-01-11T08:23:58.625Z,21.70
2023-01-11T08:26:31.552Z,23.90
2023-01-11T08:29:06.864Z,22.90
2023-01-11T08:31:49.649Z,26.50
2023-01-11T08:34:44.967Z,25.30
2023-01-11T08:37:33.544Z,34.70
2023-01-11T08:40:24.285Z,41.50
2023-01-11T08:43:42.064Z,30.90
2023-01-11T08:46:40.142Z,29.50
2023-01-11T08:50:07.648Z,27.40
2023-01-11T08:56:57.201Z,22.20
2023-01-11T09:00:46.204Z,21.70
2023-01-11T09:03:51.759Z,39.10
2023-01-11T09:10:15.872Z,21.80
2023-01-11T09:13:38.507Z,20.50
2023-01-11T09:17:24.719Z,25.10
2023-01-11T09:19:57.504Z,22.20
2023-01-11T09:23:04.397Z,26.80
2023-01-11T09:26:12.303Z,16.90
2023-01-11T09:29:37.455Z,17.20
2023-01-11T09:33:09.851Z,19.40
2023-01-11T09:36:03.891Z,23.90
2023-01-11T09:38:43.375Z,19.50
2023-01-11T09:42:00.534Z,18.40
2023-01-11T09:45:21.670Z,18.20
2023-01-11T09:48:42.291Z,17.00
2023-01-11T09:51:25.299Z,22.70
2023-01-11T09:54:35.450Z,17.50
2023-01-11T09:57:31.475Z,19.80
2023-01-11T10:01:09.992Z,17.40
2023-01-11T10:04:24.435Z,13.10
2023-01-11T10:14:02.535Z,12.60
2023-01-11T10:18:30.859Z,16.10
2023-01-11T10:20:53.653Z,17.20
2023-01-11T10:23:47.613Z,18.30
2023-01-11T10:29:47.091Z,13.80
2023-01-11T10:32:41.810Z,13.50
2023-01-11T10:35:41.302Z,13.10
2023-01-11T10:38:37.888Z,13.20
2023-01-11T10:41:15.318Z,15.20
2023-01-11T10:43:49.190Z,16.10
2023-01-11T10:46:21.094Z,14.40
2023-01-11T10:48:48.148Z,14.60
2023-01-11T10:51:24.113Z,13.20
2023-01-11T10:54:13.416Z,13.50
2023-01-11T10:57:02.922Z,31.20
2023-01-11T10:59:55.032Z,16.50
2023-01-11T11:02:48.661Z,15.60
2023-01-11T15:13:00.304Z,22.70
2023-01-11T15:15:53.104Z,15.00
2023-01-11T15:18:26.296Z,15.00
2023-01-11T15:21:02.736Z,16.00
2023-01-11T15:23:53.689Z,14.90
2023-01-11T15:26:26.958Z,13.60
2023-01-11T15:28:59.339Z,12.20
2023-01-11T15:31:43.424Z,11.90
2023-01-11T15:34:39.823Z,12.50
2023-01-11T15:37:19.069Z,14.80
2023-01-11T15:40:01.676Z,11.70
2023-01-11T15:42:51.451Z,11.10
2023-01-11T15:45:29.676Z,12.00
2023-01-11T15:48:36.512Z,13.40
2023-01-11T15:51:16.529Z,13.70
2023-01-11T15:54:00.798Z,12.20
2023-01-11T15:56:36.618Z,13.10
2023-01-11T15:59:31.888Z,11.60
2023-01-11T16:02:13.542Z,11.30
2023-01-11T16:04:56.933Z,11.80
2023-01-11T16:07:44.963Z,12.30
2023-01-11T16:10:15.084Z,12.70
2023-01-11T16:12:57.129Z,12.30
2023-01-11T16:15:29.384Z,12.90
2023-01-11T16:18:00.793Z,12.20
2023-01-11T16:20:28.621Z,14.20
2023-01-11T16:23:01.016Z,13.80
2023-01-11T16:25:29.655Z,12.90
2023-01-11T16:27:58.586Z,13.10
2023-01-11T16:30:28.281Z,13.60
2023-01-11T16:33:22.354Z,15.40
2023-01-11T16:35:49.548Z,13.70
2023-01-11T16:40:50.781Z,13.90
2023-01-11T16:43:25.714Z,13.10
2023-01-11T16:45:56.479Z,14.10
2023-01-11T16:48:28.003Z,11.50
2023-01-11T16:51:06.636Z,11.90
2023-01-11T16:53:41.311Z,12.70
2023-01-11T16:56:19.875Z,12.60
2023-01-11T16:59:04.372Z,13.70
2023-01-11T17:01:53.664Z,13.40
2023-01-11T17:04:35.199Z,13.50
2023-01-11T17:07:28.756Z,14.80
2023-01-11T17:10:21.331Z,12.20
2023-01-11T17:12:59.594Z,12.80
2023-01-11T17:15:32.976Z,13.10
2023-01-11T17:18:03.036Z,14.00
2023-01-11T17:20:32.909Z,13.50
2023-01-11T17:23:02.156Z,15.20
2023-01-11T17:25:43.793Z,14.40
2023-01-11T17:28:17.262Z,15.20
2023-01-11T17:30:44.955Z,15.30
2023-01-11T17:33:32.936Z,16.10
2023-01-11T17:35:59.953Z,16.80
2023-01-11T17:38:27.022Z,18.00
2023-01-11T17:40:57.124Z,17.80
2023-01-11T17:43:46.251Z,16.70
2023-01-11T17:46:16.541Z,16.40
2023-01-11T17:48:53.268Z,16.00
2023-01-11T17:51:31.660Z,17.70
2023-01-11T17:53:58.883Z,17.90
2023-01-11T17:56:32.129Z,17.40
2023-01-11T17:59:23.831Z,16.80
2023-01-11T18:01:56.912Z,18.30
2023-01-11T18:04:23.889Z,16.60
2023-01-11T18:09:30.832Z,18.50
2023-01-11T18:12:15.952Z,19.60
2023-01-11T18:14:56.490Z,18.20
2023-01-11T18:17:30.319Z,17.50
2023-01-11T18:19:59.026Z,16.10
2023-01-11T18:22:36.666Z,17.70
2023-01-11T18:25:25.206Z,19.30
2023-01-11T18:28:21.048Z,18.10
2023-01-11T18:30:53.576Z,18.40
2023-01-11T18:33:26.762Z,18.10
2023-01-11T18:36:02.561Z,18.60
2023-01-11T18:38:32.782Z,18.30
2023-01-11T18:41:28.777Z,17.10
2023-01-11T18:43:56.637Z,17.10
2023-01-11T18:46:24.110Z,19.60
2023-01-11T18:48:55.249Z,17.50
2023-01-11T18:51:35.699Z,18.40
2023-01-11T18:54:02.957Z,19.80
2023-01-11T18:56:29.935Z,19.60
2023-01-11T18:58:59.820Z,18.20
2023-01-11T19:01:31.715Z,18.20
2023-01-11T19:04:04.645Z,17.90
2023-01-11T19:06:34.038Z,17.00
2023-01-11T19:09:01.343Z,17.00
2023-01-11T19:11:30.534Z,19.00
2023-01-11T19:13:57.689Z,18.70
2023-01-11T19:16:27.743Z,21.70
2023-01-11T19:18:55.878Z,18.10
2023-01-11T19:21:22.467Z,17.50
2023-01-11T19:23:53.257Z,19.10
2023-01-11T19:26:20.608Z,17.40
2023-01-11T19:28:49.933Z,18.20
2023-01-11T19:31:18.885Z,19.80
2023-01-11T19:33:47.287Z,16.60
2023-01-11T19:36:14.336Z,17.60
2023-01-11T19:38:43.946Z,23.10
2023-01-11T19:41:11.816Z,28.60
2023-01-11T19:43:46.372Z,20.40
2023-01-11T19:46:30.052Z,24.00
2023-01-11T19:48:59.406Z,23.70
2023-01-11T19:51:26.300Z,22.90
2023-01-11T19:53:55.431Z,28.20
2023-01-11T19:56:24.383Z,25.10
2023-01-11T19:58:53.220Z,24.40
2023-01-11T20:01:24.363Z,18.80
2023-01-11T20:03:53.421Z,19.20
2023-01-11T20:06:20.196Z,18.90
2023-01-11T20:08:46.982Z,18.60
2023-01-11T20:11:14.709Z,17.30
2023-01-11T20:13:49.873Z,17.50
2023-01-11T20:16:28.022Z,20.60
2023-01-11T20:18:55.871Z,18.60
2023-01-11T20:21:25.467Z,20.20
2023-01-11T20:23:52.094Z,23.40
2023-01-11T20:26:18.970Z,22.70
2023-01-11T20:31:17.442Z,21.10
2023-01-11T20:33:44.572Z,21.10
2023-01-11T20:36:16.574Z,24.00
2023-01-11T20:38:46.665Z,21.00
2023-01-11T20:41:36.035Z,20.60
2023-01-11T20:44:04.416Z,21.40
2023-01-11T20:46:32.037Z,21.50
2023-01-11T20:49:01.690Z,23.00
2023-01-11T20:51:33.066Z,21.10
2023-01-11T20:54:00.291Z,21.70
2023-01-11T20:56:30.124Z,22.70
2023-01-11T20:58:58.402Z,18.20
2023-01-11T21:01:25.961Z,22.30
2023-01-11T21:04:04.536Z,20.70
2023-01-11T21:06:37.769Z,19.90
2023-01-11T21:09:05.779Z,20.50
2023-01-11T21:11:33.812Z,23.70
2023-01-11T21:14:13.469Z,20.90
2023-01-11T21:16:43.685Z,18.80
2023-01-11T21:19:11.749Z,18.60
2023-01-11T21:21:38.700Z,19.30
2023-01-11T21:24:08.028Z,17.70
2023-01-11T21:26:35.618Z,19.20
2023-01-11T21:31:34.625Z,17.80
2023-01-11T21:34:05.426Z,17.70
2023-01-11T21:36:32.573Z,22.30
2023-01-11T21:41:46.764Z,17.20
2023-01-11T21:44:16.549Z,19.70
2023-01-11T21:46:43.717Z,17.20
2023-01-11T21:49:13.897Z,17.00
2023-01-11T21:51:41.359Z,17.00
2023-01-11T21:54:12.456Z,18.10
2023-01-11T21:56:41.300Z,16.00
2023-01-11T21:59:08.950Z,18.30
2023-01-11T22:01:37.266Z,16.10
2023-01-11T22:04:05.926Z,17.20
2023-01-11T22:06:36.406Z,13.70
2023-01-11T22:09:10.181Z,14.90
2023-01-11T22:11:38.364Z,16.00
2023-01-11T22:14:06.133Z,14.70
2023-01-11T22:16:33.437Z,14.60
2023-01-11T22:19:00.818Z,17.60
2023-01-11T22:21:29.041Z,13.30
2023-01-11T22:23:57.201Z,17.20
2023-01-11T22:26:24.650Z,19.00
2023-01-11T22:29:11.191Z,17.60
2023-01-11T22:31:39.769Z,16.50
2023-01-11T22:34:06.901Z,16.00
2023-01-11T22:36:33.697Z,17.30
2023-01-11T22:39:00.504Z,16.70
2023-01-11T22:41:27.349Z,15.00
2023-01-11T22:43:54.806Z,16.20
2023-01-11T22:46:24.028Z,14.90
2023-01-11T22:48:51.056Z,15.40
2023-01-11T22:51:23.797Z,15.00
2023-01-11T22:53:51.353Z,16.90
2023-01-11T22:56:21.434Z,14.00
2023-01-11T22:58:50.055Z,15.40
2023-01-11T23:01:17.972Z,18.70
2023-01-11T23:03:44.938Z,13.40
2023-01-11T23:06:13.836Z,12.70
2023-01-11T23:08:41.775Z,13.10
2023-01-11T23:11:09.619Z,14.80
2023-01-11T23:13:52.214Z,14.60
2023-01-11T23:16:19.051Z,14.70
2023-01-11T23:18:45.760Z,14.70
2023-01-11T23:21:12.576Z,13.80
2023-01-11T23:23:39.350Z,16.00
2023-01-11T23:26:06.712Z,13.60
2023-01-11T23:28:34.061Z,15.50
2023-01-11T23:31:08.397Z,15.60
2023-01-11T23:33:35.025Z,13.60
2023-01-11T23:36:03.949Z,15.30
2023-01-11T23:38:32.020Z,15.90
2023-01-11T23:41:27.605Z,15.40
2023-01-11T23:43:54.238Z,14.70
2023-01-11T23:46:39.708Z,13.60
2023-01-11T23:49:09.958Z,13.20
2023-01-11T23:51:37.488Z,15.40
2023-01-11T23:54:04.677Z,18.60
2023-01-11T23:56:32.925Z,15.90
